createdAt,value
2017-04-19T00:00:12.321Z,57.90
2017-04-19T00:01:11.267Z,58.00
2017-04-19T00:02:10.214Z,58.10
2017-04-19T00:03:09.171Z,57.70
2017-04-19T00:04:08.215Z,57.80
2017-04-19T00:05:07.187Z,57.80
2017-04-19T00:06:06.143Z,57.90
2017-04-19T00:07:05.096Z,58.00
2017-04-19T00:08:04.092Z,58.60
2017-04-19T00:09:03.057Z,57.80
2017-04-19T00:10:02.048Z,58.20
2017-04-19T00:11:01.031Z,57.60
2017-04-19T00:12:00.020Z,57.50
2017-04-19T00:12:59.012Z,57.90
2017-04-19T00:13:57.989Z,57.80
2017-04-19T00:14:56.940Z,57.80
2017-04-19T00:15:55.926Z,57.70
2017-04-19T00:16:55.636Z,57.70
2017-04-19T00:17:54.599Z,57.80
2017-04-19T00:18:53.549Z,58.20
2017-04-19T00:19:52.546Z,58.00
2017-04-19T00:20:51.504Z,57.90
2017-04-19T00:21:50.489Z,57.80
2017-04-19T00:22:49.471Z,57.60
2017-04-19T00:23:48.460Z,57.90
2017-04-19T00:24:47.438Z,58.20
2017-04-19T00:25:46.391Z,58.20
2017-04-19T00:26:45.416Z,58.30
2017-04-19T00:27:44.418Z,58.60
2017-04-19T00:28:43.388Z,58.60
2017-04-19T00:29:42.354Z,58.70
2017-04-19T00:30:41.313Z,58.60
2017-04-19T00:31:40.267Z,58.50
2017-04-19T00:32:39.960Z,58.50
2017-04-19T00:33:39.676Z,58.60
2017-04-19T00:34:38.640Z,58.60
2017-04-19T00:35:37.603Z,58.80
2017-04-19T00:36:36.571Z,58.90
2017-04-19T00:37:35.524Z,59.20
2017-04-19T00:38:34.493Z,59.30
2017-04-19T00:39:33.503Z,59.10
2017-04-19T00:40:32.473Z,59.50
2017-04-19T00:41:31.431Z,59.30
2017-04-19T00:42:31.364Z,59.10
2017-04-19T00:43:30.723Z,59.20
2017-04-19T00:44:29.713Z,59.20
2017-04-19T00:45:29.424Z,59.60
2017-04-19T00:46:28.388Z,59.80
2017-04-19T00:47:28.124Z,59.70
2017-04-19T00:48:27.129Z,59.70
2017-04-19T00:49:26.116Z,59.90
2017-04-19T00:50:25.075Z,61.00
2017-04-19T00:51:24.082Z,60.70
2017-04-19T00:52:23.067Z,61.10
2017-04-19T00:53:22.046Z,61.10
2017-04-19T00:54:21.033Z,60.50
2017-04-19T00:55:20.000Z,60.70
2017-04-19T00:56:18.956Z,61.70
2017-04-19T00:57:17.929Z,60.90
2017-04-19T00:58:17.673Z,60.60
2017-04-19T00:59:16.638Z,60.80
2017-04-19T01:00:15.604Z,61.40
2017-04-19T01:01:14.551Z,61.60
2017-04-19T01:02:13.530Z,61.50
2017-04-19T01:03:12.547Z,61.80
2017-04-19T01:04:11.499Z,62.30
2017-04-19T01:05:10.479Z,62.50
2017-04-19T01:06:09.419Z,62.10
2017-04-19T01:07:08.412Z,61.90
2017-04-19T01:08:07.367Z,62.10
2017-04-19T01:09:06.339Z,62.30
2017-04-19T01:10:06.091Z,62.20
2017-04-19T01:11:05.043Z,62.40
2017-04-19T01:12:04.012Z,63.50
2017-04-19T01:13:02.975Z,63.20
2017-04-19T01:14:01.936Z,62.80
2017-04-19T01:15:00.934Z,63.20
2017-04-19T01:15:59.947Z,63.00
2017-04-19T01:16:58.898Z,62.80
2017-04-19T01:17:57.859Z,62.80
2017-04-19T01:18:56.846Z,63.40
2017-04-19T01:19:55.825Z,63.20
2017-04-19T01:20:54.821Z,63.50
2017-04-19T01:21:53.781Z,63.30
2017-04-19T01:22:52.745Z,63.00
2017-04-19T01:23:51.757Z,63.10
2017-04-19T01:24:50.739Z,63.30
2017-04-19T01:25:49.735Z,63.50
2017-04-19T01:26:48.729Z,63.10
2017-04-19T01:27:47.700Z,63.70
2017-04-19T01:28:46.669Z,64.00
2017-04-19T01:29:45.647Z,63.60
2017-04-19T01:30:44.616Z,64.10
2017-04-19T01:31:43.572Z,63.70
2017-04-19T01:32:42.596Z,63.50
2017-04-19T01:33:41.591Z,63.40
2017-04-19T01:34:40.547Z,63.10
2017-04-19T01:35:39.524Z,63.10
2017-04-19T01:36:38.536Z,63.90
2017-04-19T01:37:37.499Z,63.50
2017-04-19T01:38:36.485Z,63.60
2017-04-19T01:39:35.458Z,64.10
2017-04-19T01:40:34.424Z,63.20
2017-04-19T01:41:33.370Z,63.30
2017-04-19T01:42:32.487Z,64.20
2017-04-19T01:43:31.451Z,63.60
2017-04-19T01:44:30.428Z,64.20
2017-04-19T01:45:29.388Z,63.80
2017-04-19T01:46:28.342Z,63.60
2017-04-19T01:47:27.315Z,64.50
2017-04-19T01:48:26.283Z,64.40
2017-04-19T01:49:25.241Z,64.40
2017-04-19T01:50:24.236Z,64.00
2017-04-19T01:51:23.211Z,64.10
2017-04-19T01:52:22.161Z,64.50
2017-04-19T01:53:21.128Z,64.20
2017-04-19T01:54:20.860Z,64.20
2017-04-19T01:55:19.844Z,64.40
2017-04-19T01:56:18.849Z,64.30
2017-04-19T01:57:17.819Z,64.60
2017-04-19T01:58:16.791Z,64.80
2017-04-19T01:59:15.787Z,65.10
2017-04-19T02:00:14.760Z,64.90
2017-04-19T02:01:13.729Z,65.20
2017-04-19T02:02:13.685Z,66.50
2017-04-19T02:03:12.718Z,65.70
2017-04-19T02:04:11.779Z,66.50
2017-04-19T02:05:10.733Z,65.90
2017-04-19T02:06:15.124Z,65.90
2017-04-19T02:07:19.636Z,65.90
2017-04-19T02:08:18.616Z,66.30
2017-04-19T02:09:17.575Z,66.50
2017-04-19T02:10:17.702Z,66.40
2017-04-19T02:11:16.673Z,66.50
2017-04-19T02:12:16.421Z,66.40
2017-04-19T02:13:15.423Z,66.30
2017-04-19T02:14:14.416Z,66.80
2017-04-19T02:15:13.396Z,67.70
2017-04-19T02:16:12.373Z,67.10
2017-04-19T02:17:11.354Z,66.70
2017-04-19T02:18:10.391Z,67.20
2017-04-19T02:19:09.416Z,67.00
2017-04-19T02:21:07.770Z,66.10
2017-04-19T02:22:06.736Z,66.10
2017-04-19T02:23:05.698Z,66.20
2017-04-19T02:24:04.662Z,66.50
2017-04-19T02:25:04.419Z,67.50
2017-04-19T02:26:03.384Z,66.70
2017-04-19T02:27:02.341Z,66.40
2017-04-19T02:28:01.302Z,66.70
2017-04-19T02:29:00.286Z,66.70
2017-04-19T02:29:59.245Z,66.60
2017-04-19T02:30:58.227Z,66.70
2017-04-19T02:31:57.195Z,66.80
2017-04-19T02:32:56.159Z,66.90
2017-04-19T02:33:55.116Z,67.00
2017-04-19T02:34:54.085Z,67.60
2017-04-19T02:35:53.830Z,67.80
2017-04-19T02:36:52.841Z,67.60
2017-04-19T02:37:51.799Z,67.10
2017-04-19T02:38:50.789Z,67.50
2017-04-19T02:39:49.781Z,67.80
2017-04-19T02:40:48.746Z,67.70
2017-04-19T02:41:47.704Z,67.80
2017-04-19T02:42:46.699Z,67.80
2017-04-19T02:43:45.677Z,67.80
2017-04-19T02:44:44.636Z,68.00
2017-04-19T02:45:44.336Z,68.20
2017-04-19T02:46:44.042Z,68.30
2017-04-19T02:47:43.754Z,68.20
2017-04-19T02:48:43.508Z,68.80
2017-04-19T02:49:42.488Z,68.40
2017-04-19T02:50:41.462Z,68.10
2017-04-19T02:51:40.435Z,68.20
2017-04-19T02:52:39.407Z,68.40
2017-04-19T02:53:38.409Z,68.40
2017-04-19T02:54:37.401Z,68.50
2017-04-19T02:55:36.374Z,68.60
2017-04-19T02:56:35.330Z,68.80
2017-04-19T02:57:34.287Z,68.60
2017-04-19T02:58:33.997Z,68.70
2017-04-19T02:59:32.971Z,68.40
2017-04-19T03:00:32.720Z,68.50
2017-04-19T03:01:32.452Z,68.60
2017-04-19T03:02:31.427Z,68.90
2017-04-19T03:03:30.460Z,69.10
2017-04-19T03:04:29.439Z,68.80
2017-04-19T03:05:28.408Z,68.50
2017-04-19T03:06:28.171Z,68.70
2017-04-19T03:07:27.256Z,68.50
2017-04-19T03:08:26.216Z,68.40
2017-04-19T03:09:25.171Z,68.50
2017-04-19T03:10:24.158Z,68.60
2017-04-19T03:11:23.132Z,68.50
2017-04-19T03:12:22.120Z,68.60
2017-04-19T03:13:21.081Z,68.40
2017-04-19T03:14:20.776Z,70.10
2017-04-19T03:15:19.711Z,68.90
2017-04-19T03:16:18.669Z,68.90
2017-04-19T03:17:17.616Z,68.30
2017-04-19T03:18:16.629Z,68.80
2017-04-19T03:19:15.592Z,68.90
2017-04-19T03:20:15.292Z,68.10
2017-04-19T03:21:14.248Z,68.30
2017-04-19T03:22:13.198Z,68.40
2017-04-19T03:23:12.160Z,68.40
2017-04-19T03:24:11.173Z,68.30
2017-04-19T03:25:10.157Z,68.10
2017-04-19T03:26:09.116Z,68.40
2017-04-19T03:27:08.077Z,68.40
2017-04-19T03:28:07.783Z,68.60
2017-04-19T03:29:06.802Z,68.60
2017-04-19T03:30:05.775Z,68.80
2017-04-19T03:31:04.731Z,69.30
2017-04-19T03:32:04.434Z,69.20
2017-04-19T03:33:03.423Z,69.10
2017-04-19T03:34:02.374Z,69.20
2017-04-19T03:35:01.341Z,69.20
2017-04-19T03:36:00.332Z,69.00
2017-04-19T03:36:59.288Z,68.90
2017-04-19T03:37:58.259Z,69.20
2017-04-19T03:38:57.242Z,68.80
2017-04-19T03:39:56.192Z,69.10
2017-04-19T03:40:55.567Z,69.30
2017-04-19T03:41:54.608Z,70.20
2017-04-19T03:42:53.591Z,70.30
2017-04-19T03:43:52.558Z,70.60
2017-04-19T03:44:51.516Z,69.30
2017-04-19T03:45:51.320Z,70.20
2017-04-19T03:46:50.279Z,69.20
2017-04-19T03:47:49.287Z,69.20
2017-04-19T03:48:49.005Z,69.60
2017-04-19T03:49:48.021Z,71.00
2017-04-19T03:50:46.975Z,69.90
2017-04-19T03:51:45.956Z,70.00
2017-04-19T03:52:44.951Z,69.70
2017-04-19T03:53:43.957Z,69.40
2017-04-19T03:54:43.007Z,70.00
2017-04-19T03:55:41.997Z,70.10
2017-04-19T03:56:40.939Z,69.50
2017-04-19T03:57:40.659Z,69.70
2017-04-19T03:58:39.663Z,69.80
2017-04-19T03:59:38.640Z,69.90
2017-04-19T04:00:37.665Z,69.60
2017-04-19T04:01:36.627Z,69.80
2017-04-19T04:02:35.601Z,69.30
2017-04-19T04:03:34.561Z,69.50
2017-04-19T04:04:33.554Z,69.30
2017-04-19T04:05:32.555Z,73.80
2017-04-19T04:06:31.565Z,72.10
2017-04-19T04:07:30.524Z,73.60
2017-04-19T04:08:29.482Z,71.80
2017-04-19T04:09:28.428Z,74.20
2017-04-19T04:10:27.415Z,71.30
2017-04-19T04:11:26.387Z,72.30
2017-04-19T04:12:25.372Z,74.70
2017-04-19T04:13:24.404Z,70.70
2017-04-19T04:14:23.392Z,71.40
2017-04-19T04:15:22.404Z,69.70
2017-04-19T04:16:21.520Z,70.80
2017-04-19T04:17:20.511Z,69.80
2017-04-19T04:18:20.241Z,70.20
2017-04-19T04:19:19.225Z,71.10
2017-04-19T04:20:18.215Z,71.70
2017-04-19T04:21:17.159Z,71.40
2017-04-19T04:22:16.841Z,70.20
2017-04-19T04:23:15.824Z,71.50
2017-04-19T04:24:15.129Z,69.80
2017-04-19T04:25:14.861Z,70.50
2017-04-19T04:26:13.840Z,70.80
2017-04-19T04:27:12.804Z,70.50
2017-04-19T04:28:11.815Z,73.20
2017-04-19T04:29:10.847Z,71.80
2017-04-19T04:30:09.820Z,71.10
2017-04-19T04:31:08.832Z,70.40
2017-04-19T04:32:08.821Z,71.40
2017-04-19T04:33:07.805Z,70.40
2017-04-19T04:34:06.815Z,71.60
2017-04-19T04:35:05.823Z,70.90
2017-04-19T04:36:04.778Z,72.70
2017-04-19T04:37:04.484Z,74.10
2017-04-19T04:38:04.175Z,71.10
2017-04-19T04:39:03.216Z,69.60
2017-04-19T04:40:02.191Z,72.30
2017-04-19T04:41:01.204Z,70.10
2017-04-19T04:42:00.160Z,69.70
2017-04-19T04:42:59.161Z,69.80
2017-04-19T04:43:58.157Z,70.00
2017-04-19T04:44:57.136Z,69.00
2017-04-19T04:45:56.115Z,69.50
2017-04-19T04:46:55.116Z,69.00
2017-04-19T04:47:54.074Z,68.70
2017-04-19T04:48:53.041Z,69.40
2017-04-19T04:49:52.012Z,69.90
2017-04-19T04:50:51.012Z,69.00
2017-04-19T04:51:49.967Z,68.80
2017-04-19T04:52:48.962Z,68.50
2017-04-19T04:53:47.937Z,70.00
2017-04-19T04:54:46.884Z,70.40
2017-04-19T04:55:46.588Z,69.00
2017-04-19T04:56:46.282Z,68.80
2017-04-19T04:57:45.992Z,69.40
2017-04-19T04:58:45.000Z,70.10
2017-04-19T04:59:43.968Z,71.10
2017-04-19T05:00:42.948Z,69.80
2017-04-19T05:01:41.903Z,68.30
2017-04-19T05:02:41.617Z,69.40
2017-04-19T05:03:41.313Z,70.60
2017-04-19T05:04:41.045Z,68.70
2017-04-19T05:05:40.058Z,68.30
2017-04-19T05:06:39.032Z,69.20
2017-04-19T05:07:38.016Z,68.50
2017-04-19T05:08:36.987Z,68.20
2017-04-19T05:09:35.968Z,67.40
2017-04-19T05:10:34.996Z,66.80
2017-04-19T05:11:33.980Z,66.50
2017-04-19T05:12:33.896Z,67.20
2017-04-19T05:13:33.616Z,67.60
2017-04-19T05:14:32.579Z,67.50
2017-04-19T05:15:32.442Z,67.40
2017-04-19T05:16:31.447Z,68.20
2017-04-19T05:17:30.420Z,67.30
2017-04-19T05:18:29.387Z,71.00
2017-04-19T05:19:28.356Z,70.20
2017-04-19T05:20:27.373Z,79.90
2017-04-19T05:21:26.398Z,70.00
2017-04-19T05:22:25.476Z,67.20
2017-04-19T05:23:24.464Z,68.00
2017-04-19T05:24:23.432Z,66.80
2017-04-19T05:25:22.408Z,67.90
2017-04-19T05:26:21.388Z,71.20
2017-04-19T05:27:20.388Z,69.40
2017-04-19T05:28:20.258Z,65.60
2017-04-19T05:29:19.567Z,62.50
2017-04-19T05:30:18.623Z,61.30
2017-04-19T05:31:17.591Z,60.10
2017-04-19T05:32:16.558Z,59.40
2017-04-19T05:33:15.760Z,59.10
2017-04-19T05:34:14.824Z,58.90
2017-04-19T05:35:13.839Z,60.40
2017-04-19T05:36:12.819Z,58.80
2017-04-19T05:37:11.805Z,59.60
2017-04-19T05:38:10.779Z,59.60
2017-04-19T05:39:09.772Z,58.30
2017-04-19T05:40:08.784Z,58.20
2017-04-19T05:41:07.777Z,57.70
2017-04-19T05:42:06.739Z,57.20
2017-04-19T05:43:05.753Z,57.30
2017-04-19T05:44:04.699Z,58.20
2017-04-19T05:45:03.728Z,57.90
2017-04-19T05:46:03.493Z,58.50
2017-04-19T05:47:02.459Z,58.60
2017-04-19T05:48:01.428Z,58.10
2017-04-19T05:49:00.415Z,58.20
2017-04-19T05:49:59.394Z,56.70
2017-04-19T05:50:58.374Z,56.70
2017-04-19T05:51:57.376Z,57.20
2017-04-19T05:52:56.395Z,58.10
2017-04-19T05:53:55.563Z,58.70
2017-04-19T05:54:54.519Z,59.00
2017-04-19T05:55:53.849Z,60.10
2017-04-19T05:56:52.816Z,57.90
2017-04-19T05:57:51.818Z,57.90
2017-04-19T05:58:50.816Z,57.50
2017-04-19T05:59:49.791Z,57.60
2017-04-19T06:00:49.523Z,57.60
2017-04-19T06:01:48.505Z,57.40
2017-04-19T06:02:47.469Z,57.30
2017-04-19T06:03:46.480Z,58.20
2017-04-19T06:04:45.461Z,57.20
2017-04-19T06:05:44.457Z,56.80
2017-04-19T06:06:43.435Z,57.00
2017-04-19T06:07:42.410Z,56.90
2017-04-19T06:08:41.374Z,56.70
2017-04-19T06:09:40.348Z,56.20
2017-04-19T06:10:40.091Z,57.10
2017-04-19T06:11:39.052Z,56.80
2017-04-19T06:12:38.021Z,57.00
2017-04-19T06:13:37.050Z,57.50
2017-04-19T06:14:36.017Z,57.30
2017-04-19T06:15:35.003Z,57.80
2017-04-19T06:16:34.007Z,57.30
2017-04-19T06:17:33.056Z,57.00
2017-04-19T06:18:32.032Z,57.00
2017-04-19T06:19:31.015Z,57.20
2017-04-19T06:20:29.996Z,57.80
2017-04-19T06:21:28.974Z,57.80
2017-04-19T06:22:27.938Z,57.70
2017-04-19T06:23:27.644Z,58.20
2017-04-19T06:24:27.352Z,58.00
2017-04-19T06:25:26.343Z,58.30
2017-04-19T06:26:25.323Z,58.80
2017-04-19T06:27:24.337Z,58.60
2017-04-19T06:28:23.321Z,58.60
2017-04-19T06:29:22.290Z,59.00
2017-04-19T06:30:21.572Z,59.20
2017-04-19T06:31:20.868Z,59.50
2017-04-19T06:32:19.836Z,59.60
2017-04-19T06:33:18.875Z,59.40
2017-04-19T06:34:17.884Z,59.50
2017-04-19T06:35:16.861Z,59.50
2017-04-19T06:36:15.818Z,60.30
2017-04-19T06:37:14.789Z,60.60
2017-04-19T06:38:13.748Z,60.80
2017-04-19T06:39:12.808Z,60.10
2017-04-19T06:40:12.530Z,60.20
2017-04-19T06:41:11.517Z,61.90
2017-04-19T06:42:10.487Z,60.60
2017-04-19T06:43:09.504Z,60.30
2017-04-19T06:44:08.463Z,59.60
2017-04-19T06:45:07.435Z,58.90
2017-04-19T06:46:06.384Z,58.50
2017-04-19T06:47:05.332Z,58.90
2017-04-19T06:48:04.285Z,59.00
2017-04-19T06:49:03.236Z,59.80
2017-04-19T06:50:02.966Z,59.00
2017-04-19T06:51:01.985Z,59.30
2017-04-19T06:52:00.947Z,58.90
2017-04-19T06:52:59.899Z,59.20
2017-04-19T06:53:59.601Z,58.70
2017-04-19T06:54:59.295Z,58.70
2017-04-19T06:55:59.006Z,58.70
2017-04-19T06:56:58.019Z,58.40
2017-04-19T06:57:56.989Z,58.10
2017-04-19T06:58:56.129Z,57.90
2017-04-19T06:59:55.067Z,57.80
2017-04-19T07:00:54.025Z,57.90
2017-04-19T07:01:52.984Z,58.10
2017-04-19T07:02:56.915Z,58.50
2017-04-19T07:03:55.872Z,58.80
2017-04-19T07:04:54.837Z,58.60
2017-04-19T07:05:53.796Z,58.50
2017-04-19T07:06:52.748Z,58.50
2017-04-19T07:07:51.699Z,58.80
2017-04-19T07:08:50.723Z,58.20
2017-04-19T07:09:49.737Z,58.00
2017-04-19T07:10:48.951Z,57.80
2017-04-19T07:11:47.904Z,57.70
2017-04-19T07:12:46.856Z,57.50
2017-04-19T07:13:46.551Z,57.80
2017-04-19T07:14:45.507Z,57.80
2017-04-19T07:15:44.471Z,58.00
2017-04-19T07:16:43.459Z,57.70
2017-04-19T07:17:42.412Z,57.70
2017-04-19T07:18:41.389Z,58.30
2017-04-19T07:19:40.380Z,57.90
2017-04-19T07:20:39.359Z,57.70
2017-04-19T07:21:38.341Z,57.50
2017-04-19T07:22:37.331Z,57.50
2017-04-19T07:23:36.300Z,57.00
2017-04-19T07:24:35.260Z,56.60
2017-04-19T07:25:34.292Z,56.30
2017-04-19T07:26:33.274Z,55.30
2017-04-19T07:27:32.246Z,55.10
2017-04-19T07:28:31.249Z,55.20
2017-04-19T07:29:30.207Z,55.20
2017-04-19T07:30:30.495Z,53.70
2017-04-19T07:31:29.523Z,53.40
2017-04-19T07:32:28.514Z,53.40
2017-04-19T07:33:27.472Z,53.20
2017-04-19T07:34:26.449Z,53.50
2017-04-19T07:35:25.416Z,53.50
2017-04-19T07:36:24.389Z,53.70
2017-04-19T07:37:23.385Z,53.40
2017-04-19T07:38:22.388Z,53.10
2017-04-19T07:39:21.349Z,52.10
2017-04-19T07:40:20.315Z,51.80
2017-04-19T07:41:19.313Z,51.60
2017-04-19T07:42:18.295Z,52.30
2017-04-19T07:43:17.292Z,52.70
2017-04-19T07:44:16.259Z,52.50
2017-04-19T07:45:15.237Z,52.60
2017-04-19T07:46:14.212Z,52.60
2017-04-19T07:47:13.778Z,51.40
2017-04-19T07:48:12.744Z,50.80
2017-04-19T07:49:11.700Z,51.20
2017-04-19T07:50:10.687Z,51.20
2017-04-19T07:51:09.639Z,51.40
2017-04-19T07:52:08.615Z,51.50
2017-04-19T07:53:08.365Z,51.60
2017-04-19T07:54:07.348Z,51.10
2017-04-19T07:55:06.334Z,50.50
2017-04-19T07:56:05.344Z,49.70
2017-04-19T07:57:04.295Z,49.20
2017-04-19T07:58:03.320Z,48.90
2017-04-19T07:59:02.273Z,48.40
2017-04-19T08:00:01.237Z,47.80
2017-04-19T08:01:00.249Z,48.20
2017-04-19T08:01:59.234Z,48.00
2017-04-19T08:02:58.223Z,48.30
2017-04-19T08:03:57.185Z,47.90
2017-04-19T08:04:56.139Z,47.90
2017-04-19T08:05:55.129Z,47.10
2017-04-19T08:06:54.089Z,46.40
2017-04-19T08:07:53.072Z,46.30
2017-04-19T08:08:52.027Z,47.00
2017-04-19T08:09:51.008Z,45.70
2017-04-19T08:10:50.741Z,45.80
2017-04-19T08:11:49.702Z,46.60
2017-04-19T08:12:49.410Z,47.80
2017-04-19T08:13:48.382Z,47.40
2017-04-19T08:14:48.072Z,47.30
2017-04-19T08:15:47.038Z,46.60
2017-04-19T08:16:45.996Z,45.10
2017-04-19T08:17:44.951Z,44.60
2017-04-19T08:18:43.931Z,45.50
2017-04-19T08:19:42.904Z,45.70
2017-04-19T08:20:41.870Z,45.60
2017-04-19T08:21:40.829Z,46.20
2017-04-19T08:22:39.803Z,46.60
2017-04-19T08:23:38.773Z,47.00
2017-04-19T08:24:37.732Z,46.50
2017-04-19T08:25:36.744Z,45.40
2017-04-19T08:27:08.476Z,44.40
2017-04-19T08:28:07.432Z,44.90
2017-04-19T08:29:07.144Z,44.50
2017-04-19T08:30:06.100Z,44.90
2017-04-19T08:31:05.108Z,45.10
2017-04-19T08:32:04.092Z,46.20
2017-04-19T08:33:03.073Z,45.40
2017-04-19T08:34:02.026Z,45.90
2017-04-19T08:35:00.995Z,45.80
2017-04-19T08:35:59.952Z,44.70
2017-04-19T08:36:58.936Z,44.60
2017-04-19T08:37:57.906Z,45.00
2017-04-19T08:38:56.847Z,45.10
2017-04-19T08:39:55.822Z,44.80
2017-04-19T08:40:55.541Z,45.80
2017-04-19T08:41:55.260Z,46.50
2017-04-19T08:42:54.269Z,47.20
2017-04-19T08:43:53.227Z,47.00
2017-04-19T08:44:52.179Z,46.40
2017-04-19T08:45:51.217Z,46.30
2017-04-19T08:46:50.223Z,46.30
2017-04-19T08:47:49.187Z,46.50
2017-04-19T08:48:48.186Z,46.20
2017-04-19T08:49:47.143Z,46.60
2017-04-19T08:50:46.872Z,46.90
2017-04-19T08:51:45.904Z,46.90
2017-04-19T08:52:44.869Z,46.90
2017-04-19T08:53:44.635Z,46.90
2017-04-19T08:54:43.667Z,47.10
2017-04-19T08:55:42.642Z,47.00
2017-04-19T08:56:41.632Z,46.50
2017-04-19T08:57:40.618Z,46.50
2017-04-19T08:58:39.579Z,46.30
2017-04-19T08:59:38.552Z,44.60
2017-04-19T09:00:37.540Z,43.90
2017-04-19T09:01:36.521Z,42.70
2017-04-19T09:02:35.496Z,42.80
2017-04-19T09:03:34.640Z,44.90
2017-04-19T09:04:34.344Z,45.80
2017-04-19T09:05:33.303Z,46.60
2017-04-19T09:06:32.290Z,46.80
2017-04-19T09:07:31.243Z,46.70
2017-04-19T09:08:30.216Z,46.10
2017-04-19T09:09:29.204Z,45.80
2017-04-19T09:10:28.173Z,46.10
2017-04-19T09:11:27.165Z,46.50
2017-04-19T09:12:26.220Z,46.70
2017-04-19T09:13:25.167Z,47.20
2017-04-19T09:14:24.156Z,48.50
2017-04-19T09:15:23.124Z,49.50
2017-04-19T09:16:22.071Z,50.40
2017-04-19T09:17:21.064Z,50.80
2017-04-19T09:18:20.048Z,51.40
2017-04-19T09:19:18.991Z,52.40
2017-04-19T09:20:18.691Z,52.40
2017-04-19T09:21:18.416Z,53.20
2017-04-19T09:22:17.415Z,52.70
2017-04-19T09:23:16.383Z,52.30
2017-04-19T09:24:15.379Z,52.00
2017-04-19T09:25:14.351Z,52.30
2017-04-19T09:26:13.322Z,51.50
2017-04-19T09:27:12.297Z,52.00
2017-04-19T09:28:11.251Z,51.80
2017-04-19T09:29:10.220Z,51.60
2017-04-19T09:30:09.216Z,50.90
2017-04-19T09:31:08.193Z,50.60
2017-04-19T09:32:07.167Z,49.60
2017-04-19T09:33:06.147Z,48.80
2017-04-19T09:34:05.105Z,47.60
2017-04-19T09:35:04.061Z,47.10
2017-04-19T09:36:03.071Z,45.30
2017-04-19T09:37:02.124Z,43.50
2017-04-19T09:38:01.134Z,43.30
2017-04-19T09:39:00.145Z,43.70
2017-04-19T09:39:59.108Z,45.10
2017-04-19T09:40:58.093Z,46.40
2017-04-19T09:41:57.079Z,46.90
2017-04-19T09:42:56.305Z,47.60
2017-04-19T09:43:55.247Z,48.00
2017-04-19T09:44:54.198Z,48.40
2017-04-19T09:45:53.151Z,49.50
2017-04-19T09:46:52.096Z,49.40
2017-04-19T09:47:51.079Z,50.70
2017-04-19T09:48:50.133Z,51.50
2017-04-19T09:49:49.108Z,51.70
2017-04-19T09:50:48.086Z,51.70
2017-04-19T09:51:47.052Z,51.90
2017-04-19T09:52:46.762Z,52.10
2017-04-19T09:53:45.811Z,52.80
2017-04-19T09:54:44.820Z,52.20
2017-04-19T09:55:44.529Z,51.70
2017-04-19T09:56:43.500Z,52.30
2017-04-19T09:57:43.199Z,50.50
2017-04-19T09:58:42.156Z,50.50
2017-04-19T09:59:41.150Z,50.10
2017-04-19T10:00:40.096Z,50.70
2017-04-19T10:01:39.061Z,52.00
2017-04-19T10:02:38.023Z,52.60
2017-04-19T10:03:37.025Z,53.20
2017-04-19T10:04:36.031Z,52.50
2017-04-19T10:05:35.007Z,52.60
2017-04-19T10:06:33.974Z,53.10
2017-04-19T10:07:32.941Z,53.80
2017-04-19T10:08:31.905Z,53.70
2017-04-19T10:09:31.617Z,54.30
2017-04-19T10:10:30.630Z,54.90
2017-04-19T10:11:29.637Z,55.30
2017-04-19T10:12:28.623Z,55.90
2017-04-19T10:13:27.595Z,56.20
2017-04-19T10:14:26.560Z,56.40
2017-04-19T10:15:25.524Z,56.40
2017-04-19T10:16:24.483Z,57.30
2017-04-19T10:17:23.498Z,57.00
2017-04-19T10:18:22.459Z,57.10
2017-04-19T10:19:22.228Z,56.50
2017-04-19T10:20:21.283Z,55.80
2017-04-19T10:21:20.447Z,55.30
2017-04-19T10:22:19.412Z,54.10
2017-04-19T10:23:18.470Z,52.80
2017-04-19T10:24:17.450Z,52.30
2017-04-19T10:25:16.415Z,52.40
2017-04-19T10:26:15.381Z,52.50
2017-04-19T10:27:14.345Z,51.90
2017-04-19T10:28:13.327Z,51.60
2017-04-19T10:29:12.309Z,52.10
2017-04-19T10:30:11.268Z,52.50
2017-04-19T10:31:10.957Z,53.00
2017-04-19T10:32:09.926Z,52.20
2017-04-19T10:33:08.878Z,52.20
2017-04-19T10:34:07.887Z,51.90
2017-04-19T10:35:06.858Z,52.10
2017-04-19T10:36:05.846Z,51.90
2017-04-19T10:37:04.830Z,50.70
2017-04-19T10:38:03.822Z,50.80
2017-04-19T10:39:02.798Z,51.00
2017-04-19T10:40:01.768Z,52.60
2017-04-19T10:41:00.776Z,52.70
2017-04-19T10:42:59.116Z,55.50
2017-04-19T10:43:58.083Z,57.80
2017-04-19T10:44:57.040Z,58.90
2017-04-19T10:45:56.743Z,59.90
2017-04-19T10:46:56.540Z,61.30
2017-04-19T10:47:55.494Z,63.30
2017-04-19T10:48:54.452Z,64.90
2017-04-19T10:49:53.414Z,65.50
2017-04-19T10:50:52.383Z,65.40
2017-04-19T10:51:52.096Z,66.50
2017-04-19T10:52:51.108Z,66.60
2017-04-19T10:53:50.078Z,65.60
2017-04-19T10:54:49.043Z,63.00
2017-04-19T10:55:48.026Z,63.30
2017-04-19T10:56:47.044Z,64.00
2017-04-19T10:57:46.007Z,64.50
2017-04-19T10:58:45.000Z,64.90
2017-04-19T10:59:43.973Z,65.00
2017-04-19T11:00:42.921Z,63.70
2017-04-19T11:01:42.608Z,62.90
2017-04-19T11:02:41.673Z,63.60
2017-04-19T11:03:40.655Z,62.50
2017-04-19T11:04:39.657Z,62.20
2017-04-19T11:05:38.623Z,63.60
2017-04-19T11:06:37.604Z,60.80
2017-04-19T11:07:36.588Z,61.30
2017-04-19T11:08:35.548Z,59.70
2017-04-19T11:09:34.516Z,58.10
2017-04-19T11:10:33.566Z,58.30
2017-04-19T11:11:33.287Z,59.50
2017-04-19T11:12:32.272Z,59.50
2017-04-19T11:13:31.255Z,60.60
2017-04-19T11:14:30.232Z,60.30
2017-04-19T11:15:29.195Z,61.60
2017-04-19T11:16:28.168Z,61.50
2017-04-19T11:17:27.114Z,62.10
2017-04-19T11:18:26.081Z,62.10
2017-04-19T11:19:25.053Z,61.70
2017-04-19T11:20:24.030Z,61.80
2017-04-19T11:21:23.039Z,62.10
2017-04-19T11:22:22.019Z,63.20
2017-04-19T11:23:21.011Z,64.40
2017-04-19T11:24:19.967Z,65.40
2017-04-19T11:25:18.937Z,64.00
2017-04-19T11:26:18.704Z,64.10
2017-04-19T11:27:17.686Z,63.10
2017-04-19T11:28:16.690Z,64.30
2017-04-19T11:29:15.652Z,62.00
2017-04-19T11:30:14.649Z,61.70
2017-04-19T11:31:13.600Z,62.90
2017-04-19T11:32:12.572Z,61.80
2017-04-19T11:33:11.532Z,60.30
2017-04-19T11:34:10.820Z,60.10
2017-04-19T11:35:09.867Z,58.90
2017-04-19T11:36:08.837Z,58.20
2017-04-19T11:37:07.821Z,58.40
2017-04-19T11:38:06.775Z,59.20
2017-04-19T11:39:06.079Z,57.80
2017-04-19T11:40:05.067Z,57.30
2017-04-19T11:41:04.031Z,55.80
2017-04-19T11:42:02.984Z,57.10
2017-04-19T11:43:02.042Z,54.80
2017-04-19T11:44:01.016Z,53.70
2017-04-19T11:44:59.980Z,55.10
2017-04-19T11:45:58.981Z,53.70
2017-04-19T11:46:57.939Z,54.50
2017-04-19T11:47:56.900Z,55.10
2017-04-19T11:48:55.881Z,53.40
2017-04-19T11:49:54.848Z,54.20
2017-04-19T11:50:53.804Z,52.60
2017-04-19T11:51:52.782Z,52.80
2017-04-19T11:52:51.729Z,52.90
2017-04-19T11:53:50.687Z,53.00
2017-04-19T11:54:49.666Z,53.40
2017-04-19T11:55:48.615Z,53.60
2017-04-19T11:56:47.672Z,53.80
2017-04-19T11:57:46.689Z,53.30
2017-04-19T11:58:45.640Z,53.00
2017-04-19T11:59:44.595Z,53.40
2017-04-19T12:00:43.581Z,54.10
2017-04-19T12:01:42.589Z,54.40
2017-04-19T12:02:41.559Z,53.90
2017-04-19T12:03:40.566Z,53.30
2017-04-19T12:04:39.532Z,53.00
2017-04-19T12:05:38.500Z,51.50
2017-04-19T12:06:37.456Z,51.70
2017-04-19T12:07:36.422Z,51.40
2017-04-19T12:08:35.386Z,51.30
2017-04-19T12:09:34.431Z,51.10
2017-04-19T12:10:33.615Z,50.00
2017-04-19T12:11:32.554Z,48.40
2017-04-19T12:12:31.881Z,48.90
2017-04-19T12:13:30.864Z,48.90
2017-04-19T12:14:29.831Z,49.30
2017-04-19T12:15:28.790Z,49.20
2017-04-19T12:16:27.778Z,48.90
2017-04-19T12:17:26.752Z,47.80
2017-04-19T12:18:25.719Z,48.50
2017-04-19T12:19:24.737Z,48.20
2017-04-19T12:20:24.614Z,48.00
2017-04-19T12:21:23.570Z,47.30
2017-04-19T12:22:22.541Z,47.20
2017-04-19T12:23:21.486Z,49.40
2017-04-19T12:24:21.199Z,51.40
2017-04-19T12:25:20.172Z,48.30
2017-04-19T12:26:19.868Z,48.20
2017-04-19T12:27:19.638Z,46.80
2017-04-19T12:28:18.607Z,46.70
2017-04-19T12:29:17.743Z,45.20
2017-04-19T12:30:17.456Z,44.00
2017-04-19T12:31:16.440Z,44.90
2017-04-19T12:32:15.408Z,42.80
2017-04-19T12:33:14.378Z,42.80
2017-04-19T12:34:13.355Z,43.50
2017-04-19T12:35:12.312Z,44.30
2017-04-19T12:36:11.263Z,45.30
2017-04-19T12:37:10.218Z,46.30
2017-04-19T12:38:09.198Z,46.40
2017-04-19T12:39:08.187Z,46.60
2017-04-19T12:40:07.150Z,46.50
2017-04-19T12:41:06.892Z,46.80
2017-04-19T12:42:05.855Z,47.00
2017-04-19T12:43:05.133Z,47.30